sensor_id;sensor_type;location;lat;lon;timestamp;P1;durP1;ratioP1;P2;durP2;ratioP2
69977;SDS011;57317;43.606;3.872;2024-03-29T00:01:47;35.90;;;4.03;;
69977;SDS011;57317;43.606;3.872;2024-03-29T00:04:13;34.45;;;4.47;;
69977;SDS011;57317;43.606;3.872;2024-03-29T00:06:38;33.17;;;4.68;;
69977;SDS011;57317;43.606;3.872;2024-03-29T00:09:03;35.75;;;3.92;;
69977;SDS011;57317;43.606;3.872;2024-03-29T00:11:29;31.75;;;3.95;;
69977;SDS011;57317;43.606;3.872;2024-03-29T00:13:56;29.55;;;3.60;;
69977;SDS011;57317;43.606;3.872;2024-03-29T00:16:21;37.45;;;4.55;;
69977;SDS011;57317;43.606;3.872;2024-03-29T00:18:50;34.15;;;3.90;;
69977;SDS011;57317;43.606;3.872;2024-03-29T00:21:16;37.80;;;4.03;;
69977;SDS011;57317;43.606;3.872;2024-03-29T00:23:42;37.95;;;4.78;;
69977;SDS011;57317;43.606;3.872;2024-03-29T00:26:09;28.48;;;4.05;;
69977;SDS011;57317;43.606;3.872;2024-03-29T00:28:34;35.42;;;4.07;;
69977;SDS011;57317;43.606;3.872;2024-03-29T00:31:00;40.20;;;4.60;;
69977;SDS011;57317;43.606;3.872;2024-03-29T00:33:25;41.97;;;4.72;;
69977;SDS011;57317;43.606;3.872;2024-03-29T00:35:50;33.97;;;5.25;;
69977;SDS011;57317;43.606;3.872;2024-03-29T00:38:16;39.97;;;4.82;;
69977;SDS011;57317;43.606;3.872;2024-03-29T00:40:41;40.70;;;4.85;;
69977;SDS011;57317;43.606;3.872;2024-03-29T00:43:07;37.92;;;4.43;;
69977;SDS011;57317;43.606;3.872;2024-03-29T00:45:32;34.58;;;4.40;;
69977;SDS011;57317;43.606;3.872;2024-03-29T00:47:58;37.75;;;5.03;;
69977;SDS011;57317;43.606;3.872;2024-03-29T00:50:23;34.92;;;4.25;;
69977;SDS011;57317;43.606;3.872;2024-03-29T00:52:49;38.78;;;4.55;;
69977;SDS011;57317;43.606;3.872;2024-03-29T00:55:15;34.70;;;4.18;;
69977;SDS011;57317;43.606;3.872;2024-03-29T00:57:40;35.70;;;4.75;;
69977;SDS011;57317;43.606;3.872;2024-03-29T01:00:06;38.63;;;4.90;;
69977;SDS011;57317;43.606;3.872;2024-03-29T01:02:31;36.13;;;5.05;;
69977;SDS011;57317;43.606;3.872;2024-03-29T01:04:57;38.05;;;4.90;;
69977;SDS011;57317;43.606;3.872;2024-03-29T01:07:22;43.83;;;4.88;;
69977;SDS011;57317;43.606;3.872;2024-03-29T01:09:48;38.03;;;4.85;;
69977;SDS011;57317;43.606;3.872;2024-03-29T01:12:13;39.30;;;5.00;;
69977;SDS011;57317;43.606;3.872;2024-03-29T01:14:39;36.15;;;4.65;;
69977;SDS011;57317;43.606;3.872;2024-03-29T01:17:04;40.85;;;5.30;;
69977;SDS011;57317;43.606;3.872;2024-03-29T01:19:31;43.05;;;5.40;;
69977;SDS011;57317;43.606;3.872;2024-03-29T01:21:57;38.47;;;5.22;;
69977;SDS011;57317;43.606;3.872;2024-03-29T01:24:23;42.40;;;5.47;;
69977;SDS011;57317;43.606;3.872;2024-03-29T01:26:49;38.83;;;5.80;;
69977;SDS011;57317;43.606;3.872;2024-03-29T01:29:14;36.17;;;4.85;;
69977;SDS011;57317;43.606;3.872;2024-03-29T01:31:40;39.45;;;5.78;;
69977;SDS011;57317;43.606;3.872;2024-03-29T01:34:05;37.78;;;5.75;;
69977;SDS011;57317;43.606;3.872;2024-03-29T01:36:31;34.53;;;5.43;;
69977;SDS011;57317;43.606;3.872;2024-03-29T01:38:56;34.03;;;5.15;;
69977;SDS011;57317;43.606;3.872;2024-03-29T01:41:23;38.45;;;6.05;;
69977;SDS011;57317;43.606;3.872;2024-03-29T01:43:50;43.72;;;5.88;;
69977;SDS011;57317;43.606;3.872;2024-03-29T01:46:16;38.65;;;5.05;;
69977;SDS011;57317;43.606;3.872;2024-03-29T01:48:44;40.15;;;5.50;;
69977;SDS011;57317;43.606;3.872;2024-03-29T01:51:10;43.65;;;6.30;;
69977;SDS011;57317;43.606;3.872;2024-03-29T01:53:36;44.10;;;5.47;;
69977;SDS011;57317;43.606;3.872;2024-03-29T01:56:02;50.38;;;5.90;;
69977;SDS011;57317;43.606;3.872;2024-03-29T01:58:28;43.13;;;5.15;;
69977;SDS011;57317;43.606;3.872;2024-03-29T02:00:54;45.63;;;5.40;;
69977;SDS011;57317;43.606;3.872;2024-03-29T02:03:22;38.00;;;5.43;;
69977;SDS011;57317;43.606;3.872;2024-03-29T02:05:48;42.35;;;5.78;;
69977;SDS011;57317;43.606;3.872;2024-03-29T02:08:14;42.70;;;5.32;;
69977;SDS011;57317;43.606;3.872;2024-03-29T02:10:40;39.92;;;4.90;;
69977;SDS011;57317;43.606;3.872;2024-03-29T02:13:06;36.63;;;5.43;;
69977;SDS011;57317;43.606;3.872;2024-03-29T02:15:32;43.33;;;5.70;;
69977;SDS011;57317;43.606;3.872;2024-03-29T02:17:57;39.30;;;5.95;;
69977;SDS011;57317;43.606;3.872;2024-03-29T02:20:23;37.10;;;5.35;;
69977;SDS011;57317;43.606;3.872;2024-03-29T02:22:57;44.75;;;6.38;;
69977;SDS011;57317;43.606;3.872;2024-03-29T02:25:25;44.67;;;6.20;;
69977;SDS011;57317;43.606;3.872;2024-03-29T02:27:51;48.03;;;5.50;;
69977;SDS011;57317;43.606;3.872;2024-03-29T02:30:17;45.70;;;6.32;;
69977;SDS011;57317;43.606;3.872;2024-03-29T02:32:43;41.47;;;5.70;;
69977;SDS011;57317;43.606;3.872;2024-03-29T02:35:08;41.00;;;5.82;;
69977;SDS011;57317;43.606;3.872;2024-03-29T02:37:37;43.75;;;6.45;;
69977;SDS011;57317;43.606;3.872;2024-03-29T02:40:03;47.63;;;6.75;;
69977;SDS011;57317;43.606;3.872;2024-03-29T02:42:30;44.25;;;6.38;;
69977;SDS011;57317;43.606;3.872;2024-03-29T02:44:55;54.42;;;6.90;;
69977;SDS011;57317;43.606;3.872;2024-03-29T02:47:21;42.55;;;6.32;;
69977;SDS011;57317;43.606;3.872;2024-03-29T02:49:47;47.95;;;7.07;;
69977;SDS011;57317;43.606;3.872;2024-03-29T02:52:12;44.65;;;7.30;;
69977;SDS011;57317;43.606;3.872;2024-03-29T02:54:38;49.20;;;6.60;;
69977;SDS011;57317;43.606;3.872;2024-03-29T02:57:03;50.60;;;7.97;;
69977;SDS011;57317;43.606;3.872;2024-03-29T02:59:29;45.50;;;6.90;;
69977;SDS011;57317;43.606;3.872;2024-03-29T03:01:54;45.40;;;7.32;;
69977;SDS011;57317;43.606;3.872;2024-03-29T03:04:20;46.47;;;7.20;;
69977;SDS011;57317;43.606;3.872;2024-03-29T03:06:45;45.35;;;7.50;;
69977;SDS011;57317;43.606;3.872;2024-03-29T03:09:10;51.85;;;7.82;;
69977;SDS011;57317;43.606;3.872;2024-03-29T03:11:54;47.40;;;7.00;;
69977;SDS011;57317;43.606;3.872;2024-03-29T03:14:20;45.42;;;7.50;;
69977;SDS011;57317;43.606;3.872;2024-03-29T03:16:45;47.53;;;7.35;;
69977;SDS011;57317;43.606;3.872;2024-03-29T03:19:11;54.58;;;7.50;;
69977;SDS011;57317;43.606;3.872;2024-03-29T03:21:36;46.10;;;8.02;;
69977;SDS011;57317;43.606;3.872;2024-03-29T03:24:02;46.58;;;7.60;;
69977;SDS011;57317;43.606;3.872;2024-03-29T03:26:29;46.40;;;6.95;;
69977;SDS011;57317;43.606;3.872;2024-03-29T03:28:54;46.55;;;7.30;;
69977;SDS011;57317;43.606;3.872;2024-03-29T03:31:20;41.85;;;7.35;;
69977;SDS011;57317;43.606;3.872;2024-03-29T03:33:45;43.17;;;7.18;;
69977;SDS011;57317;43.606;3.872;2024-03-29T03:36:11;52.72;;;7.45;;
69977;SDS011;57317;43.606;3.872;2024-03-29T03:38:36;42.30;;;6.65;;
69977;SDS011;57317;43.606;3.872;2024-03-29T03:41:03;57.88;;;8.00;;
69977;SDS011;57317;43.606;3.872;2024-03-29T03:43:29;44.83;;;6.82;;
69977;SDS011;57317;43.606;3.872;2024-03-29T03:45:59;42.38;;;7.22;;
69977;SDS011;57317;43.606;3.872;2024-03-29T03:48:25;45.13;;;7.15;;
69977;SDS011;57317;43.606;3.872;2024-03-29T03:50:51;43.28;;;6.88;;
69977;SDS011;57317;43.606;3.872;2024-03-29T03:53:16;45.30;;;7.43;;
69977;SDS011;57317;43.606;3.872;2024-03-29T03:55:41;46.33;;;7.07;;
69977;SDS011;57317;43.606;3.872;2024-03-29T03:58:07;39.25;;;7.00;;
69977;SDS011;57317;43.606;3.872;2024-03-29T04:00:33;42.58;;;7.38;;
69977;SDS011;57317;43.606;3.872;2024-03-29T04:02:58;39.55;;;7.22;;
69977;SDS011;57317;43.606;3.872;2024-03-29T04:05:24;41.85;;;7.30;;
69977;SDS011;57317;43.606;3.872;2024-03-29T04:07:52;42.35;;;6.95;;
69977;SDS011;57317;43.606;3.872;2024-03-29T04:10:17;48.20;;;7.30;;
69977;SDS011;57317;43.606;3.872;2024-03-29T04:12:43;47.13;;;7.43;;
69977;SDS011;57317;43.606;3.872;2024-03-29T04:15:08;44.75;;;7.00;;
69977;SDS011;57317;43.606;3.872;2024-03-29T04:17:34;44.03;;;7.53;;
69977;SDS011;57317;43.606;3.872;2024-03-29T04:22:29;38.47;;;6.55;;
69977;SDS011;57317;43.606;3.872;2024-03-29T04:24:55;45.95;;;6.63;;
69977;SDS011;57317;43.606;3.872;2024-03-29T04:27:20;48.00;;;7.18;;
69977;SDS011;57317;43.606;3.872;2024-03-29T04:29:46;39.53;;;6.95;;
69977;SDS011;57317;43.606;3.872;2024-03-29T04:32:11;36.90;;;5.88;;
69977;SDS011;57317;43.606;3.872;2024-03-29T04:34:37;45.47;;;6.13;;
69977;SDS011;57317;43.606;3.872;2024-03-29T04:37:02;45.55;;;6.63;;
69977;SDS011;57317;43.606;3.872;2024-03-29T04:39:28;48.75;;;6.57;;
69977;SDS011;57317;43.606;3.872;2024-03-29T04:41:53;46.00;;;6.30;;
69977;SDS011;57317;43.606;3.872;2024-03-29T04:46:53;43.22;;;6.03;;
69977;SDS011;57317;43.606;3.872;2024-03-29T04:49:18;39.47;;;6.15;;
69977;SDS011;57317;43.606;3.872;2024-03-29T04:51:48;41.40;;;6.28;;
69977;SDS011;57317;43.606;3.872;2024-03-29T04:54:14;39.33;;;6.95;;
69977;SDS011;57317;43.606;3.872;2024-03-29T04:56:41;42.30;;;6.35;;
69977;SDS011;57317;43.606;3.872;2024-03-29T04:59:06;40.42;;;6.55;;
69977;SDS011;57317;43.606;3.872;2024-03-29T05:01:32;39.90;;;6.22;;
69977;SDS011;57317;43.606;3.872;2024-03-29T05:04:00;34.65;;;5.15;;
69977;SDS011;57317;43.606;3.872;2024-03-29T05:06:25;40.90;;;6.05;;
69977;SDS011;57317;43.606;3.872;2024-03-29T05:08:51;41.50;;;5.97;;
69977;SDS011;57317;43.606;3.872;2024-03-29T05:13:42;39.57;;;5.40;;
69977;SDS011;57317;43.606;3.872;2024-03-29T05:16:08;34.20;;;5.70;;
69977;SDS011;57317;43.606;3.872;2024-03-29T05:18:34;36.67;;;6.57;;
69977;SDS011;57317;43.606;3.872;2024-03-29T05:20:59;36.92;;;5.45;;
69977;SDS011;57317;43.606;3.872;2024-03-29T05:23:25;33.28;;;5.53;;
69977;SDS011;57317;43.606;3.872;2024-03-29T05:25:50;33.28;;;5.15;;
69977;SDS011;57317;43.606;3.872;2024-03-29T05:28:17;36.60;;;5.63;;
69977;SDS011;57317;43.606;3.872;2024-03-29T05:30:43;43.85;;;5.22;;
69977;SDS011;57317;43.606;3.872;2024-03-29T05:33:08;41.67;;;6.93;;
69977;SDS011;57317;43.606;3.872;2024-03-29T05:35:34;36.22;;;5.60;;
69977;SDS011;57317;43.606;3.872;2024-03-29T05:37:59;33.22;;;5.63;;
69977;SDS011;57317;43.606;3.872;2024-03-29T05:40:25;42.08;;;5.97;;
69977;SDS011;57317;43.606;3.872;2024-03-29T05:42:52;41.63;;;5.70;;
69977;SDS011;57317;43.606;3.872;2024-03-29T05:45:30;31.45;;;5.63;;
69977;SDS011;57317;43.606;3.872;2024-03-29T05:47:56;42.83;;;5.80;;
69977;SDS011;57317;43.606;3.872;2024-03-29T05:50:23;35.28;;;5.13;;
69977;SDS011;57317;43.606;3.872;2024-03-29T05:52:50;36.25;;;5.13;;
69977;SDS011;57317;43.606;3.872;2024-03-29T05:55:16;36.65;;;5.55;;
69977;SDS011;57317;43.606;3.872;2024-03-29T05:57:41;37.30;;;5.45;;
69977;SDS011;57317;43.606;3.872;2024-03-29T06:00:10;33.67;;;5.60;;
69977;SDS011;57317;43.606;3.872;2024-03-29T06:02:36;34.25;;;5.28;;
69977;SDS011;57317;43.606;3.872;2024-03-29T06:05:02;29.58;;;5.43;;
69977;SDS011;57317;43.606;3.872;2024-03-29T06:07:28;28.85;;;5.05;;
69977;SDS011;57317;43.606;3.872;2024-03-29T06:09:54;35.80;;;5.43;;
69977;SDS011;57317;43.606;3.872;2024-03-29T06:12:20;38.10;;;4.88;;
69977;SDS011;57317;43.606;3.872;2024-03-29T06:14:45;38.88;;;5.70;;
69977;SDS011;57317;43.606;3.872;2024-03-29T06:17:29;34.47;;;5.10;;
69977;SDS011;57317;43.606;3.872;2024-03-29T06:19:55;37.97;;;5.22;;
69977;SDS011;57317;43.606;3.872;2024-03-29T06:22:24;39.60;;;5.07;;
69977;SDS011;57317;43.606;3.872;2024-03-29T06:24:52;28.95;;;4.95;;
69977;SDS011;57317;43.606;3.872;2024-03-29T06:27:18;37.30;;;4.80;;
69977;SDS011;57317;43.606;3.872;2024-03-29T06:29:46;38.13;;;5.07;;
69977;SDS011;57317;43.606;3.872;2024-03-29T06:32:11;36.55;;;4.75;;
69977;SDS011;57317;43.606;3.872;2024-03-29T06:34:37;28.88;;;5.00;;
69977;SDS011;57317;43.606;3.872;2024-03-29T06:37:02;37.00;;;5.25;;
69977;SDS011;57317;43.606;3.872;2024-03-29T06:39:28;38.28;;;4.82;;
69977;SDS011;57317;43.606;3.872;2024-03-29T06:41:54;36.70;;;5.10;;
69977;SDS011;57317;43.606;3.872;2024-03-29T06:44:19;38.55;;;4.65;;
69977;SDS011;57317;43.606;3.872;2024-03-29T06:46:47;34.13;;;5.15;;
69977;SDS011;57317;43.606;3.872;2024-03-29T06:49:13;33.17;;;5.10;;
69977;SDS011;57317;43.606;3.872;2024-03-29T06:51:41;36.88;;;5.50;;
69977;SDS011;57317;43.606;3.872;2024-03-29T06:54:07;32.63;;;5.03;;
69977;SDS011;57317;43.606;3.872;2024-03-29T06:56:32;33.35;;;4.95;;
69977;SDS011;57317;43.606;3.872;2024-03-29T06:58:58;32.50;;;4.60;;
69977;SDS011;57317;43.606;3.872;2024-03-29T07:01:23;36.33;;;4.35;;
69977;SDS011;57317;43.606;3.872;2024-03-29T07:03:49;34.10;;;5.05;;
69977;SDS011;57317;43.606;3.872;2024-03-29T07:06:14;36.10;;;5.30;;
69977;SDS011;57317;43.606;3.872;2024-03-29T07:08:40;33.97;;;5.53;;
69977;SDS011;57317;43.606;3.872;2024-03-29T07:11:05;38.20;;;5.47;;
69977;SDS011;57317;43.606;3.872;2024-03-29T07:13:30;31.67;;;5.00;;
69977;SDS011;57317;43.606;3.872;2024-03-29T07:15:57;36.22;;;5.03;;
69977;SDS011;57317;43.606;3.872;2024-03-29T07:18:25;34.42;;;4.60;;
69977;SDS011;57317;43.606;3.872;2024-03-29T07:20:51;35.42;;;5.68;;
69977;SDS011;57317;43.606;3.872;2024-03-29T07:23:16;33.88;;;4.75;;
69977;SDS011;57317;43.606;3.872;2024-03-29T07:25:45;36.03;;;4.75;;
69977;SDS011;57317;43.606;3.872;2024-03-29T07:28:13;30.13;;;5.05;;
69977;SDS011;57317;43.606;3.872;2024-03-29T07:30:40;40.67;;;5.75;;
69977;SDS011;57317;43.606;3.872;2024-03-29T07:33:06;28.85;;;4.25;;
69977;SDS011;57317;43.606;3.872;2024-03-29T07:35:34;33.80;;;4.32;;
69977;SDS011;57317;43.606;3.872;2024-03-29T07:37:59;36.00;;;5.65;;
69977;SDS011;57317;43.606;3.872;2024-03-29T07:40:24;35.10;;;4.45;;
69977;SDS011;57317;43.606;3.872;2024-03-29T07:42:50;30.75;;;4.70;;
69977;SDS011;57317;43.606;3.872;2024-03-29T07:45:16;29.85;;;3.75;;
69977;SDS011;57317;43.606;3.872;2024-03-29T07:47:41;30.33;;;4.47;;
69977;SDS011;57317;43.606;3.872;2024-03-29T07:50:06;32.13;;;4.45;;
69977;SDS011;57317;43.606;3.872;2024-03-29T07:52:34;26.73;;;4.10;;
69977;SDS011;57317;43.606;3.872;2024-03-29T07:55:00;32.05;;;4.22;;
69977;SDS011;57317;43.606;3.872;2024-03-29T07:57:25;26.08;;;3.75;;
69977;SDS011;57317;43.606;3.872;2024-03-29T07:59:51;28.88;;;3.80;;
69977;SDS011;57317;43.606;3.872;2024-03-29T08:02:16;28.02;;;3.90;;
69977;SDS011;57317;43.606;3.872;2024-03-29T08:04:42;28.17;;;4.20;;
69977;SDS011;57317;43.606;3.872;2024-03-29T08:07:08;30.65;;;4.55;;
69977;SDS011;57317;43.606;3.872;2024-03-29T08:09:34;31.63;;;4.18;;
69977;SDS011;57317;43.606;3.872;2024-03-29T08:11:59;25.08;;;3.80;;
69977;SDS011;57317;43.606;3.872;2024-03-29T08:14:25;26.83;;;3.50;;
69977;SDS011;57317;43.606;3.872;2024-03-29T08:16:52;25.80;;;3.92;;
69977;SDS011;57317;43.606;3.872;2024-03-29T08:19:19;26.42;;;3.40;;
69977;SDS011;57317;43.606;3.872;2024-03-29T08:21:45;25.35;;;3.92;;
69977;SDS011;57317;43.606;3.872;2024-03-29T08:24:10;25.40;;;4.03;;
69977;SDS011;57317;43.606;3.872;2024-03-29T08:26:36;29.98;;;3.90;;
69977;SDS011;57317;43.606;3.872;2024-03-29T08:29:02;27.55;;;3.60;;
69977;SDS011;57317;43.606;3.872;2024-03-29T08:31:27;30.02;;;4.13;;
69977;SDS011;57317;43.606;3.872;2024-03-29T08:33:53;26.55;;;3.50;;
69977;SDS011;57317;43.606;3.872;2024-03-29T08:36:19;23.35;;;3.78;;
69977;SDS011;57317;43.606;3.872;2024-03-29T08:38:44;29.67;;;3.88;;
69977;SDS011;57317;43.606;3.872;2024-03-29T08:41:11;29.20;;;3.65;;
69977;SDS011;57317;43.606;3.872;2024-03-29T08:43:37;22.00;;;3.53;;
69977;SDS011;57317;43.606;3.872;2024-03-29T08:46:02;22.25;;;3.15;;
69977;SDS011;57317;43.606;3.872;2024-03-29T08:48:28;28.63;;;3.47;;
69977;SDS011;57317;43.606;3.872;2024-03-29T08:50:54;22.80;;;3.05;;
69977;SDS011;57317;43.606;3.872;2024-03-29T08:53:20;24.33;;;3.13;;
69977;SDS011;57317;43.606;3.872;2024-03-29T08:55:47;25.35;;;3.63;;
69977;SDS011;57317;43.606;3.872;2024-03-29T08:58:13;25.00;;;3.60;;
69977;SDS011;57317;43.606;3.872;2024-03-29T09:00:39;26.55;;;3.60;;
69977;SDS011;57317;43.606;3.872;2024-03-29T09:03:04;26.05;;;3.53;;
69977;SDS011;57317;43.606;3.872;2024-03-29T09:05:30;25.85;;;3.55;;
69977;SDS011;57317;43.606;3.872;2024-03-29T09:07:55;25.85;;;3.40;;
69977;SDS011;57317;43.606;3.872;2024-03-29T09:10:22;24.48;;;3.47;;
69977;SDS011;57317;43.606;3.872;2024-03-29T09:12:48;27.77;;;4.38;;
69977;SDS011;57317;43.606;3.872;2024-03-29T09:15:14;27.98;;;4.10;;
69977;SDS011;57317;43.606;3.872;2024-03-29T09:17:41;23.80;;;3.47;;
69977;SDS011;57317;43.606;3.872;2024-03-29T09:20:07;26.40;;;3.83;;
69977;SDS011;57317;43.606;3.872;2024-03-29T09:22:33;22.80;;;3.30;;
69977;SDS011;57317;43.606;3.872;2024-03-29T09:27:24;25.17;;;2.80;;
69977;SDS011;57317;43.606;3.872;2024-03-29T09:29:51;24.60;;;3.13;;
69977;SDS011;57317;43.606;3.872;2024-03-29T09:32:16;21.48;;;2.65;;
69977;SDS011;57317;43.606;3.872;2024-03-29T09:34:43;24.63;;;3.33;;
69977;SDS011;57317;43.606;3.872;2024-03-29T09:37:09;22.17;;;3.15;;
69977;SDS011;57317;43.606;3.872;2024-03-29T09:39:35;23.25;;;2.97;;
69977;SDS011;57317;43.606;3.872;2024-03-29T09:44:25;31.13;;;4.50;;
69977;SDS011;57317;43.606;3.872;2024-03-29T09:46:56;25.17;;;3.53;;
69977;SDS011;57317;43.606;3.872;2024-03-29T09:49:24;25.13;;;3.80;;
69977;SDS011;57317;43.606;3.872;2024-03-29T09:54:15;27.85;;;3.88;;
69977;SDS011;57317;43.606;3.872;2024-03-29T09:59:07;28.60;;;3.97;;
69977;SDS011;57317;43.606;3.872;2024-03-29T10:03:57;34.03;;;4.65;;
69977;SDS011;57317;43.606;3.872;2024-03-29T10:06:24;35.20;;;4.40;;
69977;SDS011;57317;43.606;3.872;2024-03-29T10:13:43;36.85;;;4.63;;
69977;SDS011;57317;43.606;3.872;2024-03-29T10:16:10;41.33;;;5.50;;
69977;SDS011;57317;43.606;3.872;2024-03-29T10:18:36;38.83;;;4.95;;
69977;SDS011;57317;43.606;3.872;2024-03-29T10:23:28;44.67;;;4.78;;
69977;SDS011;57317;43.606;3.872;2024-03-29T10:25:54;38.65;;;5.05;;
69977;SDS011;57317;43.606;3.872;2024-03-29T10:28:19;50.35;;;6.00;;
69977;SDS011;57317;43.606;3.872;2024-03-29T10:30:45;45.47;;;5.38;;
69977;SDS011;57317;43.606;3.872;2024-03-29T10:33:11;47.72;;;6.13;;
69977;SDS011;57317;43.606;3.872;2024-03-29T10:35:40;48.45;;;6.07;;
69977;SDS011;57317;43.606;3.872;2024-03-29T10:38:06;55.13;;;6.57;;
69977;SDS011;57317;43.606;3.872;2024-03-29T10:40:32;46.08;;;5.68;;
69977;SDS011;57317;43.606;3.872;2024-03-29T10:42:57;54.25;;;6.32;;
69977;SDS011;57317;43.606;3.872;2024-03-29T10:45:23;59.03;;;6.38;;
69977;SDS011;57317;43.606;3.872;2024-03-29T10:47:49;50.63;;;5.82;;
69977;SDS011;57317;43.606;3.872;2024-03-29T10:50:15;42.45;;;5.65;;
69977;SDS011;57317;43.606;3.872;2024-03-29T10:52:42;48.10;;;5.80;;
69977;SDS011;57317;43.606;3.872;2024-03-29T10:55:11;47.50;;;5.55;;
69977;SDS011;57317;43.606;3.872;2024-03-29T10:57:40;47.38;;;5.85;;
69977;SDS011;57317;43.606;3.872;2024-03-29T11:00:14;48.25;;;6.35;;
69977;SDS011;57317;43.606;3.872;2024-03-29T11:05:28;54.25;;;6.40;;
69977;SDS011;57317;43.606;3.872;2024-03-29T11:07:56;43.83;;;5.47;;
69977;SDS011;57317;43.606;3.872;2024-03-29T11:13:15;50.15;;;6.75;;
69977;SDS011;57317;43.606;3.872;2024-03-29T11:15:44;50.70;;;6.47;;
69977;SDS011;57317;43.606;3.872;2024-03-29T11:18:10;49.03;;;5.65;;
69977;SDS011;57317;43.606;3.872;2024-03-29T11:23:08;51.85;;;6.07;;
69977;SDS011;57317;43.606;3.872;2024-03-29T11:25:40;48.05;;;6.55;;
69977;SDS011;57317;43.606;3.872;2024-03-29T11:28:06;52.95;;;6.65;;
69977;SDS011;57317;43.606;3.872;2024-03-29T11:30:39;52.53;;;5.55;;
69977;SDS011;57317;43.606;3.872;2024-03-29T11:35:57;49.55;;;5.47;;
69977;SDS011;57317;43.606;3.872;2024-03-29T11:38:34;58.72;;;6.85;;
69977;SDS011;57317;43.606;3.872;2024-03-29T11:41:01;47.72;;;6.40;;
69977;SDS011;57317;43.606;3.872;2024-03-29T11:43:28;49.30;;;6.20;;
69977;SDS011;57317;43.606;3.872;2024-03-29T11:48:22;53.17;;;6.25;;
69977;SDS011;57317;43.606;3.872;2024-03-29T11:50:50;52.58;;;5.68;;
69977;SDS011;57317;43.606;3.872;2024-03-29T11:53:16;52.85;;;6.43;;
69977;SDS011;57317;43.606;3.872;2024-03-29T11:55:41;49.30;;;6.22;;
69977;SDS011;57317;43.606;3.872;2024-03-29T12:00:32;50.42;;;6.47;;
69977;SDS011;57317;43.606;3.872;2024-03-29T12:05:23;55.50;;;6.07;;
69977;SDS011;57317;43.606;3.872;2024-03-29T12:07:49;49.15;;;5.60;;
69977;SDS011;57317;43.606;3.872;2024-03-29T12:12:40;51.75;;;5.80;;
69977;SDS011;57317;43.606;3.872;2024-03-29T12:15:07;47.75;;;5.75;;
69977;SDS011;57317;43.606;3.872;2024-03-29T12:17:33;44.25;;;5.47;;
69977;SDS011;57317;43.606;3.872;2024-03-29T12:22:30;44.42;;;6.78;;
69977;SDS011;57317;43.606;3.872;2024-03-29T12:24:56;112.43;;;10.48;;
69977;SDS011;57317;43.606;3.872;2024-03-29T12:29:49;39.42;;;4.95;;
69977;SDS011;57317;43.606;3.872;2024-03-29T12:32:18;48.72;;;5.68;;
69977;SDS011;57317;43.606;3.872;2024-03-29T12:34:46;45.95;;;5.95;;
69977;SDS011;57317;43.606;3.872;2024-03-29T12:39:37;47.15;;;5.30;;
69977;SDS011;57317;43.606;3.872;2024-03-29T12:42:07;49.10;;;5.88;;
69977;SDS011;57317;43.606;3.872;2024-03-29T12:46:59;47.30;;;5.95;;
69977;SDS011;57317;43.606;3.872;2024-03-29T12:49:25;45.05;;;6.68;;
69977;SDS011;57317;43.606;3.872;2024-03-29T12:54:16;45.30;;;6.63;;
69977;SDS011;57317;43.606;3.872;2024-03-29T12:56:43;43.83;;;5.47;;
69977;SDS011;57317;43.606;3.872;2024-03-29T13:01:35;44.65;;;5.25;;
69977;SDS011;57317;43.606;3.872;2024-03-29T13:06:25;46.03;;;5.70;;
69977;SDS011;57317;43.606;3.872;2024-03-29T13:11:18;40.38;;;5.07;;
69977;SDS011;57317;43.606;3.872;2024-03-29T13:16:09;43.93;;;5.80;;
69977;SDS011;57317;43.606;3.872;2024-03-29T13:21:00;40.60;;;5.13;;
69977;SDS011;57317;43.606;3.872;2024-03-29T13:23:27;40.88;;;5.53;;
69977;SDS011;57317;43.606;3.872;2024-03-29T13:28:20;43.63;;;5.32;;
69977;SDS011;57317;43.606;3.872;2024-03-29T13:33:13;49.95;;;5.75;;
69977;SDS011;57317;43.606;3.872;2024-03-29T13:45:22;37.58;;;4.38;;
69977;SDS011;57317;43.606;3.872;2024-03-29T13:47:50;59.50;;;5.90;;
69977;SDS011;57317;43.606;3.872;2024-03-29T13:52:42;43.37;;;5.27;;
69977;SDS011;57317;43.606;3.872;2024-03-29T13:55:09;44.83;;;5.47;;
69977;SDS011;57317;43.606;3.872;2024-03-29T13:57:35;44.20;;;5.13;;
69977;SDS011;57317;43.606;3.872;2024-03-29T14:00:01;47.53;;;5.55;;
69977;SDS011;57317;43.606;3.872;2024-03-29T14:02:29;43.90;;;5.38;;
69977;SDS011;57317;43.606;3.872;2024-03-29T14:07:20;40.80;;;5.05;;
69977;SDS011;57317;43.606;3.872;2024-03-29T14:12:11;40.50;;;5.15;;
69977;SDS011;57317;43.606;3.872;2024-03-29T14:14:38;46.28;;;5.70;;
69977;SDS011;57317;43.606;3.872;2024-03-29T14:19:31;44.80;;;5.20;;
69977;SDS011;57317;43.606;3.872;2024-03-29T14:21:58;48.50;;;5.60;;
69977;SDS011;57317;43.606;3.872;2024-03-29T14:24:24;42.65;;;5.07;;
69977;SDS011;57317;43.606;3.872;2024-03-29T14:29:16;38.65;;;5.50;;
69977;SDS011;57317;43.606;3.872;2024-03-29T14:31:43;50.00;;;5.90;;
69977;SDS011;57317;43.606;3.872;2024-03-29T14:34:10;37.42;;;4.75;;
69977;SDS011;57317;43.606;3.872;2024-03-29T14:39:01;42.53;;;4.93;;
69977;SDS011;57317;43.606;3.872;2024-03-29T14:43:53;45.17;;;5.63;;
69977;SDS011;57317;43.606;3.872;2024-03-29T14:46:20;40.83;;;5.20;;
69977;SDS011;57317;43.606;3.872;2024-03-29T14:51:11;50.53;;;5.10;;
69977;SDS011;57317;43.606;3.872;2024-03-29T14:56:02;42.13;;;4.80;;
69977;SDS011;57317;43.606;3.872;2024-03-29T14:58:28;47.40;;;5.10;;
69977;SDS011;57317;43.606;3.872;2024-03-29T15:03:19;46.30;;;5.10;;
69977;SDS011;57317;43.606;3.872;2024-03-29T15:08:10;45.43;;;5.87;;
69977;SDS011;57317;43.606;3.872;2024-03-29T15:10:41;43.50;;;5.47;;
69977;SDS011;57317;43.606;3.872;2024-03-29T15:15:32;42.37;;;5.10;;
69977;SDS011;57317;43.606;3.872;2024-03-29T15:18:01;36.50;;;5.40;;
69977;SDS011;57317;43.606;3.872;2024-03-29T15:20:31;40.47;;;5.45;;
69977;SDS011;57317;43.606;3.872;2024-03-29T15:22:57;41.90;;;5.13;;
69977;SDS011;57317;43.606;3.872;2024-03-29T15:25:23;39.42;;;5.90;;
69977;SDS011;57317;43.606;3.872;2024-03-29T15:30:34;41.05;;;5.25;;
69977;SDS011;57317;43.606;3.872;2024-03-29T15:33:01;44.38;;;5.97;;
69977;SDS011;57317;43.606;3.872;2024-03-29T15:35:27;42.00;;;4.75;;
69977;SDS011;57317;43.606;3.872;2024-03-29T15:40:17;46.70;;;5.27;;
69977;SDS011;57317;43.606;3.872;2024-03-29T15:45:08;47.37;;;5.37;;
69977;SDS011;57317;43.606;3.872;2024-03-29T15:52:25;38.27;;;5.20;;
69977;SDS011;57317;43.606;3.872;2024-03-29T15:57:15;37.70;;;4.70;;
69977;SDS011;57317;43.606;3.872;2024-03-29T16:02:06;44.13;;;5.13;;
69977;SDS011;57317;43.606;3.872;2024-03-29T16:04:32;44.90;;;5.47;;
69977;SDS011;57317;43.606;3.872;2024-03-29T16:09:23;42.50;;;5.25;;
69977;SDS011;57317;43.606;3.872;2024-03-29T16:14:14;38.23;;;5.37;;
69977;SDS011;57317;43.606;3.872;2024-03-29T16:16:40;45.20;;;5.15;;
69977;SDS011;57317;43.606;3.872;2024-03-29T16:19:06;38.95;;;4.68;;
69977;SDS011;57317;43.606;3.872;2024-03-29T16:23:57;40.40;;;4.93;;
69977;SDS011;57317;43.606;3.872;2024-03-29T16:28:48;37.97;;;5.13;;
69977;SDS011;57317;43.606;3.872;2024-03-29T16:31:16;35.83;;;4.55;;
69977;SDS011;57317;43.606;3.872;2024-03-29T16:33:42;38.95;;;4.32;;
69977;SDS011;57317;43.606;3.872;2024-03-29T16:36:09;36.92;;;5.35;;
69977;SDS011;57317;43.606;3.872;2024-03-29T16:41:00;37.47;;;4.87;;
69977;SDS011;57317;43.606;3.872;2024-03-29T16:48:16;42.73;;;4.93;;
69977;SDS011;57317;43.606;3.872;2024-03-29T16:50:42;33.58;;;4.43;;
69977;SDS011;57317;43.606;3.872;2024-03-29T16:53:07;31.77;;;4.15;;
69977;SDS011;57317;43.606;3.872;2024-03-29T16:55:33;37.33;;;4.38;;
69977;SDS011;57317;43.606;3.872;2024-03-29T16:58:01;40.67;;;4.60;;